sensor_id;sensor_type;location;lat;lon;timestamp;P1;durP1;ratioP1;P2;durP2;ratioP2
61200;SDS011;47065;52.898;6.992;2022-09-09T00:02:20;64.75;;;28.23;;
61200;SDS011;47065;52.898;6.992;2022-09-09T00:04:59;45.13;;;23.50;;
61200;SDS011;47065;52.898;6.992;2022-09-09T00:07:46;43.95;;;24.52;;
61200;SDS011;47065;52.898;6.992;2022-09-09T00:15:24;50.15;;;23.48;;
61200;SDS011;47065;52.898;6.992;2022-09-09T00:18:03;41.33;;;23.15;;
61200;SDS011;47065;52.898;6.992;2022-09-09T00:20:45;46.60;;;24.85;;
61200;SDS011;47065;52.898;6.992;2022-09-09T00:23:27;52.85;;;24.42;;
61200;SDS011;47065;52.898;6.992;2022-09-09T00:31:34;39.15;;;23.02;;
61200;SDS011;47065;52.898;6.992;2022-09-09T00:34:21;50.72;;;23.50;;
61200;SDS011;47065;52.898;6.992;2022-09-09T00:36:48;51.58;;;25.33;;
61200;SDS011;47065;52.898;6.992;2022-09-09T00:39:23;55.37;;;24.73;;
61200;SDS011;47065;52.898;6.992;2022-09-09T00:42:14;59.08;;;24.20;;
61200;SDS011;47065;52.898;6.992;2022-09-09T00:44:56;41.20;;;21.77;;
61200;SDS011;47065;52.898;6.992;2022-09-09T00:55:33;52.83;;;23.85;;
61200;SDS011;47065;52.898;6.992;2022-09-09T00:58:13;36.88;;;20.05;;
61200;SDS011;47065;52.898;6.992;2022-09-09T01:00:43;42.10;;;22.08;;
61200;SDS011;47065;52.898;6.992;2022-09-09T01:06:00;42.13;;;21.95;;
61200;SDS011;47065;52.898;6.992;2022-09-09T01:08:39;46.22;;;22.88;;
61200;SDS011;47065;52.898;6.992;2022-09-09T01:11:22;44.45;;;22.55;;
61200;SDS011;47065;52.898;6.992;2022-09-09T01:16:45;38.97;;;21.38;;
61200;SDS011;47065;52.898;6.992;2022-09-09T01:19:15;35.70;;;21.35;;
61200;SDS011;47065;52.898;6.992;2022-09-09T01:21:56;35.20;;;19.38;;
61200;SDS011;47065;52.898;6.992;2022-09-09T01:24:35;27.88;;;16.55;;
61200;SDS011;47065;52.898;6.992;2022-09-09T01:27:07;33.28;;;17.73;;
61200;SDS011;47065;52.898;6.992;2022-09-09T01:29:35;24.08;;;15.88;;
61200;SDS011;47065;52.898;6.992;2022-09-09T01:32:48;22.25;;;14.00;;
61200;SDS011;47065;52.898;6.992;2022-09-09T01:35:05;26.63;;;14.82;;
61200;SDS011;47065;52.898;6.992;2022-09-09T01:37:36;26.80;;;15.52;;
61200;SDS011;47065;52.898;6.992;2022-09-09T01:40:01;28.95;;;15.68;;
61200;SDS011;47065;52.898;6.992;2022-09-09T01:42:27;24.85;;;15.15;;
61200;SDS011;47065;52.898;6.992;2022-09-09T01:44:53;24.33;;;15.05;;
61200;SDS011;47065;52.898;6.992;2022-09-09T01:47:20;28.27;;;16.08;;
61200;SDS011;47065;52.898;6.992;2022-09-09T01:49:45;22.42;;;14.15;;
61200;SDS011;47065;52.898;6.992;2022-09-09T01:52:11;26.55;;;15.63;;
61200;SDS011;47065;52.898;6.992;2022-09-09T01:54:37;23.38;;;14.20;;
61200;SDS011;47065;52.898;6.992;2022-09-09T01:57:08;20.52;;;13.10;;
61200;SDS011;47065;52.898;6.992;2022-09-09T02:07:51;16.77;;;11.13;;
61200;SDS011;47065;52.898;6.992;2022-09-09T02:10:32;18.17;;;11.23;;
61200;SDS011;47065;52.898;6.992;2022-09-09T02:13:21;20.23;;;11.75;;
61200;SDS011;47065;52.898;6.992;2022-09-09T02:18:30;22.73;;;11.45;;
61200;SDS011;47065;52.898;6.992;2022-09-09T02:21:03;19.83;;;10.55;;
61200;SDS011;47065;52.898;6.992;2022-09-09T02:23:31;20.65;;;10.85;;
61200;SDS011;47065;52.898;6.992;2022-09-09T02:25:58;21.42;;;11.00;;
61200;SDS011;47065;52.898;6.992;2022-09-09T02:28:27;17.88;;;10.63;;
61200;SDS011;47065;52.898;6.992;2022-09-09T02:30:57;19.52;;;11.15;;
61200;SDS011;47065;52.898;6.992;2022-09-09T02:33:24;16.25;;;10.38;;
61200;SDS011;47065;52.898;6.992;2022-09-09T02:35:52;20.35;;;11.30;;
61200;SDS011;47065;52.898;6.992;2022-09-09T02:38:19;23.20;;;11.75;;
61200;SDS011;47065;52.898;6.992;2022-09-09T02:40:47;17.65;;;11.15;;
61200;SDS011;47065;52.898;6.992;2022-09-09T02:43:14;16.60;;;11.70;;
61200;SDS011;47065;52.898;6.992;2022-09-09T02:45:42;17.42;;;11.10;;
61200;SDS011;47065;52.898;6.992;2022-09-09T02:48:23;17.63;;;11.73;;
61200;SDS011;47065;52.898;6.992;2022-09-09T02:53:59;21.52;;;11.30;;
61200;SDS011;47065;52.898;6.992;2022-09-09T02:56:29;16.58;;;10.50;;
61200;SDS011;47065;52.898;6.992;2022-09-09T02:59:02;24.08;;;12.23;;
61200;SDS011;47065;52.898;6.992;2022-09-09T03:01:29;18.48;;;11.65;;
61200;SDS011;47065;52.898;6.992;2022-09-09T03:03:55;18.48;;;11.75;;
61200;SDS011;47065;52.898;6.992;2022-09-09T03:06:20;16.23;;;11.60;;
61200;SDS011;47065;52.898;6.992;2022-09-09T03:08:46;20.90;;;10.85;;
61200;SDS011;47065;52.898;6.992;2022-09-09T03:11:15;23.98;;;12.45;;
61200;SDS011;47065;52.898;6.992;2022-09-09T03:13:41;21.90;;;11.30;;
61200;SDS011;47065;52.898;6.992;2022-09-09T03:16:07;17.33;;;11.38;;
61200;SDS011;47065;52.898;6.992;2022-09-09T03:18:32;17.55;;;11.20;;
61200;SDS011;47065;52.898;6.992;2022-09-09T03:20:59;16.30;;;10.32;;
61200;SDS011;47065;52.898;6.992;2022-09-09T03:23:25;14.85;;;10.85;;
61200;SDS011;47065;52.898;6.992;2022-09-09T03:25:51;17.67;;;11.07;;
61200;SDS011;47065;52.898;6.992;2022-09-09T03:28:18;19.08;;;11.38;;
61200;SDS011;47065;52.898;6.992;2022-09-09T03:30:44;24.85;;;12.30;;
61200;SDS011;47065;52.898;6.992;2022-09-09T03:33:09;18.38;;;11.60;;
61200;SDS011;47065;52.898;6.992;2022-09-09T03:35:35;21.52;;;12.20;;
61200;SDS011;47065;52.898;6.992;2022-09-09T03:38:01;16.17;;;9.73;;
61200;SDS011;47065;52.898;6.992;2022-09-09T03:40:26;15.35;;;10.52;;
61200;SDS011;47065;52.898;6.992;2022-09-09T03:42:52;16.20;;;9.20;;
61200;SDS011;47065;52.898;6.992;2022-09-09T03:45:18;16.48;;;9.05;;
61200;SDS011;47065;52.898;6.992;2022-09-09T03:47:43;13.90;;;7.97;;
61200;SDS011;47065;52.898;6.992;2022-09-09T03:50:09;10.40;;;7.72;;
61200;SDS011;47065;52.898;6.992;2022-09-09T03:52:39;13.77;;;7.43;;
61200;SDS011;47065;52.898;6.992;2022-09-09T03:55:07;10.02;;;7.32;;
61200;SDS011;47065;52.898;6.992;2022-09-09T03:57:33;10.43;;;7.07;;
61200;SDS011;47065;52.898;6.992;2022-09-09T04:00:04;9.63;;;6.18;;
61200;SDS011;47065;52.898;6.992;2022-09-09T04:02:31;8.65;;;5.40;;
61200;SDS011;47065;52.898;6.992;2022-09-09T04:04:57;7.53;;;4.00;;
61200;SDS011;47065;52.898;6.992;2022-09-09T04:07:22;8.20;;;4.32;;
61200;SDS011;47065;52.898;6.992;2022-09-09T04:09:48;7.38;;;3.35;;
61200;SDS011;47065;52.898;6.992;2022-09-09T04:12:14;6.25;;;2.80;;
61200;SDS011;47065;52.898;6.992;2022-09-09T04:14:39;5.47;;;2.53;;
61200;SDS011;47065;52.898;6.992;2022-09-09T04:17:05;4.45;;;3.30;;
61200;SDS011;47065;52.898;6.992;2022-09-09T04:19:31;7.53;;;3.33;;
61200;SDS011;47065;52.898;6.992;2022-09-09T04:21:57;4.65;;;3.38;;
61200;SDS011;47065;52.898;6.992;2022-09-09T04:24:24;6.40;;;4.28;;
61200;SDS011;47065;52.898;6.992;2022-09-09T04:26:50;7.70;;;4.38;;
61200;SDS011;47065;52.898;6.992;2022-09-09T04:29:15;11.65;;;8.38;;
61200;SDS011;47065;52.898;6.992;2022-09-09T04:31:41;12.90;;;8.45;;
61200;SDS011;47065;52.898;6.992;2022-09-09T04:34:07;15.32;;;9.55;;
61200;SDS011;47065;52.898;6.992;2022-09-09T04:36:34;20.58;;;10.93;;
61200;SDS011;47065;52.898;6.992;2022-09-09T04:39:00;20.35;;;11.48;;
61200;SDS011;47065;52.898;6.992;2022-09-09T04:41:26;18.77;;;11.88;;
61200;SDS011;47065;52.898;6.992;2022-09-09T04:43:52;19.13;;;11.48;;
61200;SDS011;47065;52.898;6.992;2022-09-09T04:46:19;17.30;;;10.38;;
61200;SDS011;47065;52.898;6.992;2022-09-09T04:48:45;16.15;;;10.93;;
61200;SDS011;47065;52.898;6.992;2022-09-09T04:51:12;16.02;;;10.80;;
61200;SDS011;47065;52.898;6.992;2022-09-09T04:53:38;19.02;;;11.68;;
61200;SDS011;47065;52.898;6.992;2022-09-09T04:56:06;23.67;;;13.52;;
61200;SDS011;47065;52.898;6.992;2022-09-09T04:58:36;17.73;;;10.85;;
61200;SDS011;47065;52.898;6.992;2022-09-09T05:03:33;23.08;;;11.32;;
61200;SDS011;47065;52.898;6.992;2022-09-09T05:06:05;19.65;;;10.40;;
61200;SDS011;47065;52.898;6.992;2022-09-09T05:08:38;17.15;;;11.10;;
61200;SDS011;47065;52.898;6.992;2022-09-09T05:11:15;22.20;;;12.73;;
61200;SDS011;47065;52.898;6.992;2022-09-09T05:13:42;15.48;;;11.55;;
61200;SDS011;47065;52.898;6.992;2022-09-09T05:16:09;17.63;;;12.60;;
61200;SDS011;47065;52.898;6.992;2022-09-09T05:18:36;14.43;;;10.70;;
61200;SDS011;47065;52.898;6.992;2022-09-09T05:21:02;15.93;;;11.70;;
61200;SDS011;47065;52.898;6.992;2022-09-09T05:23:28;17.13;;;12.07;;
61200;SDS011;47065;52.898;6.992;2022-09-09T05:25:55;17.67;;;12.43;;
61200;SDS011;47065;52.898;6.992;2022-09-09T05:28:22;20.52;;;12.90;;
61200;SDS011;47065;52.898;6.992;2022-09-09T05:31:03;16.00;;;10.60;;
61200;SDS011;47065;52.898;6.992;2022-09-09T05:33:30;19.48;;;12.98;;
61200;SDS011;47065;52.898;6.992;2022-09-09T05:36:04;25.60;;;13.27;;
61200;SDS011;47065;52.898;6.992;2022-09-09T05:38:31;19.63;;;12.00;;
61200;SDS011;47065;52.898;6.992;2022-09-09T05:40:58;16.33;;;12.02;;
61200;SDS011;47065;52.898;6.992;2022-09-09T05:43:24;15.30;;;10.98;;
61200;SDS011;47065;52.898;6.992;2022-09-09T05:46:01;15.63;;;10.40;;
61200;SDS011;47065;52.898;6.992;2022-09-09T05:48:30;19.13;;;11.35;;
61200;SDS011;47065;52.898;6.992;2022-09-09T05:50:57;15.52;;;11.25;;
61200;SDS011;47065;52.898;6.992;2022-09-09T05:53:23;25.13;;;11.45;;
61200;SDS011;47065;52.898;6.992;2022-09-09T05:55:49;15.98;;;10.75;;
61200;SDS011;47065;52.898;6.992;2022-09-09T05:58:15;16.13;;;11.13;;
61200;SDS011;47065;52.898;6.992;2022-09-09T06:00:42;14.90;;;10.75;;
61200;SDS011;47065;52.898;6.992;2022-09-09T06:03:12;15.02;;;10.68;;
61200;SDS011;47065;52.898;6.992;2022-09-09T06:05:37;12.98;;;9.57;;
61200;SDS011;47065;52.898;6.992;2022-09-09T06:08:03;14.43;;;10.00;;
61200;SDS011;47065;52.898;6.992;2022-09-09T06:10:29;17.00;;;11.27;;
61200;SDS011;47065;52.898;6.992;2022-09-09T06:12:54;14.60;;;8.90;;
61200;SDS011;47065;52.898;6.992;2022-09-09T06:15:20;12.63;;;9.30;;
61200;SDS011;47065;52.898;6.992;2022-09-09T06:17:46;14.27;;;9.45;;
61200;SDS011;47065;52.898;6.992;2022-09-09T06:20:12;15.75;;;9.85;;
61200;SDS011;47065;52.898;6.992;2022-09-09T06:22:41;15.43;;;9.45;;
61200;SDS011;47065;52.898;6.992;2022-09-09T06:25:07;14.43;;;9.90;;
61200;SDS011;47065;52.898;6.992;2022-09-09T06:27:34;15.70;;;9.73;;
61200;SDS011;47065;52.898;6.992;2022-09-09T06:30:00;14.18;;;9.68;;
61200;SDS011;47065;52.898;6.992;2022-09-09T06:32:25;14.40;;;9.52;;
61200;SDS011;47065;52.898;6.992;2022-09-09T06:34:52;16.75;;;10.15;;
61200;SDS011;47065;52.898;6.992;2022-09-09T06:37:17;12.27;;;9.07;;
61200;SDS011;47065;52.898;6.992;2022-09-09T06:39:43;12.40;;;8.75;;
61200;SDS011;47065;52.898;6.992;2022-09-09T06:42:09;11.95;;;9.02;;
61200;SDS011;47065;52.898;6.992;2022-09-09T06:44:34;13.52;;;9.98;;
61200;SDS011;47065;52.898;6.992;2022-09-09T06:47:01;13.23;;;9.40;;
61200;SDS011;47065;52.898;6.992;2022-09-09T06:49:27;15.30;;;10.23;;
61200;SDS011;47065;52.898;6.992;2022-09-09T06:51:52;12.13;;;9.73;;
61200;SDS011;47065;52.898;6.992;2022-09-09T06:54:19;11.25;;;8.88;;
61200;SDS011;47065;52.898;6.992;2022-09-09T06:56:45;15.02;;;10.23;;
61200;SDS011;47065;52.898;6.992;2022-09-09T06:59:10;17.10;;;10.80;;
61200;SDS011;47065;52.898;6.992;2022-09-09T07:01:41;10.82;;;9.38;;
61200;SDS011;47065;52.898;6.992;2022-09-09T07:04:09;16.38;;;10.30;;
61200;SDS011;47065;52.898;6.992;2022-09-09T07:06:40;11.48;;;8.93;;
61200;SDS011;47065;52.898;6.992;2022-09-09T07:09:08;11.20;;;9.10;;
61200;SDS011;47065;52.898;6.992;2022-09-09T07:11:45;11.93;;;9.27;;
61200;SDS011;47065;52.898;6.992;2022-09-09T07:14:13;10.23;;;9.18;;
61200;SDS011;47065;52.898;6.992;2022-09-09T07:16:43;11.13;;;8.57;;
61200;SDS011;47065;52.898;6.992;2022-09-09T07:19:10;13.07;;;9.25;;
61200;SDS011;47065;52.898;6.992;2022-09-09T07:21:37;12.55;;;9.00;;
61200;SDS011;47065;52.898;6.992;2022-09-09T07:24:05;12.90;;;9.38;;
61200;SDS011;47065;52.898;6.992;2022-09-09T07:26:33;12.98;;;9.10;;
61200;SDS011;47065;52.898;6.992;2022-09-09T07:28:59;13.90;;;9.25;;
61200;SDS011;47065;52.898;6.992;2022-09-09T07:31:26;10.45;;;8.68;;
61200;SDS011;47065;52.898;6.992;2022-09-09T07:33:55;11.63;;;9.65;;
61200;SDS011;47065;52.898;6.992;2022-09-09T07:36:22;12.90;;;9.43;;
61200;SDS011;47065;52.898;6.992;2022-09-09T07:38:50;12.07;;;9.15;;
61200;SDS011;47065;52.898;6.992;2022-09-09T07:41:19;12.10;;;9.13;;
61200;SDS011;47065;52.898;6.992;2022-09-09T07:43:48;11.27;;;8.13;;
61200;SDS011;47065;52.898;6.992;2022-09-09T07:46:15;12.70;;;8.25;;
61200;SDS011;47065;52.898;6.992;2022-09-09T07:48:44;10.98;;;7.22;;
61200;SDS011;47065;52.898;6.992;2022-09-09T07:51:12;10.32;;;6.88;;
61200;SDS011;47065;52.898;6.992;2022-09-09T07:53:42;9.35;;;6.85;;
61200;SDS011;47065;52.898;6.992;2022-09-09T07:56:10;8.63;;;6.30;;
61200;SDS011;47065;52.898;6.992;2022-09-09T07:58:37;7.65;;;6.10;;
61200;SDS011;47065;52.898;6.992;2022-09-09T08:01:11;9.35;;;6.22;;
61200;SDS011;47065;52.898;6.992;2022-09-09T08:03:43;10.63;;;6.72;;
61200;SDS011;47065;52.898;6.992;2022-09-09T08:06:09;8.48;;;5.95;;
61200;SDS011;47065;52.898;6.992;2022-09-09T08:08:37;10.73;;;6.53;;
61200;SDS011;47065;52.898;6.992;2022-09-09T08:11:07;12.68;;;6.20;;
61200;SDS011;47065;52.898;6.992;2022-09-09T08:13:37;12.15;;;6.03;;
61200;SDS011;47065;52.898;6.992;2022-09-09T08:16:05;9.95;;;6.20;;
61200;SDS011;47065;52.898;6.992;2022-09-09T08:18:31;10.07;;;6.35;;
61200;SDS011;47065;52.898;6.992;2022-09-09T08:20:58;10.63;;;6.18;;
61200;SDS011;47065;52.898;6.992;2022-09-09T08:23:29;7.63;;;6.00;;
61200;SDS011;47065;52.898;6.992;2022-09-09T08:25:54;13.52;;;6.70;;
61200;SDS011;47065;52.898;6.992;2022-09-09T08:28:27;10.45;;;6.57;;
61200;SDS011;47065;52.898;6.992;2022-09-09T08:30:53;10.75;;;5.85;;
61200;SDS011;47065;52.898;6.992;2022-09-09T08:33:19;8.30;;;5.82;;
61200;SDS011;47065;52.898;6.992;2022-09-09T08:35:50;15.15;;;5.95;;
61200;SDS011;47065;52.898;6.992;2022-09-09T08:38:17;12.85;;;6.95;;
61200;SDS011;47065;52.898;6.992;2022-09-09T08:40:43;8.18;;;5.88;;
61200;SDS011;47065;52.898;6.992;2022-09-09T08:43:14;9.90;;;5.22;;
61200;SDS011;47065;52.898;6.992;2022-09-09T08:46:00;7.75;;;4.63;;
61200;SDS011;47065;52.898;6.992;2022-09-09T08:51:35;4.83;;;3.67;;
61200;SDS011;47065;52.898;6.992;2022-09-09T08:54:02;7.88;;;3.55;;
61200;SDS011;47065;52.898;6.992;2022-09-09T08:56:30;9.32;;;3.72;;
61200;SDS011;47065;52.898;6.992;2022-09-09T08:58:57;6.40;;;3.50;;
61200;SDS011;47065;52.898;6.992;2022-09-09T09:12:35;6.35;;;5.03;;
61200;SDS011;47065;52.898;6.992;2022-09-09T09:15:23;9.65;;;4.38;;
61200;SDS011;47065;52.898;6.992;2022-09-09T09:17:51;7.22;;;5.35;;
61200;SDS011;47065;52.898;6.992;2022-09-09T09:20:23;6.85;;;4.30;;
61200;SDS011;47065;52.898;6.992;2022-09-09T09:22:57;7.25;;;4.68;;
61200;SDS011;47065;52.898;6.992;2022-09-09T09:25:31;8.00;;;4.47;;
61200;SDS011;47065;52.898;6.992;2022-09-09T09:28:19;10.77;;;3.85;;
61200;SDS011;47065;52.898;6.992;2022-09-09T09:30:53;9.30;;;4.05;;
61200;SDS011;47065;52.898;6.992;2022-09-09T09:33:21;7.63;;;4.18;;
61200;SDS011;47065;52.898;6.992;2022-09-09T09:36:05;8.43;;;4.10;;
61200;SDS011;47065;52.898;6.992;2022-09-09T09:38:33;8.98;;;3.80;;
61200;SDS011;47065;52.898;6.992;2022-09-09T09:41:00;9.57;;;3.55;;
61200;SDS011;47065;52.898;6.992;2022-09-09T09:45:56;8.13;;;3.92;;
61200;SDS011;47065;52.898;6.992;2022-09-09T09:48:25;10.48;;;3.22;;
61200;SDS011;47065;52.898;6.992;2022-09-09T09:50:56;12.32;;;2.97;;
61200;SDS011;47065;52.898;6.992;2022-09-09T09:53:33;9.80;;;3.08;;
61200;SDS011;47065;52.898;6.992;2022-09-09T09:58:53;10.48;;;3.30;;
61200;SDS011;47065;52.898;6.992;2022-09-09T10:03:50;8.50;;;2.42;;
61200;SDS011;47065;52.898;6.992;2022-09-09T10:06:17;11.80;;;3.08;;
61200;SDS011;47065;52.898;6.992;2022-09-09T10:08:54;8.18;;;2.13;;
61200;SDS011;47065;52.898;6.992;2022-09-09T10:16:48;7.75;;;1.60;;
61200;SDS011;47065;52.898;6.992;2022-09-09T10:19:31;6.55;;;1.63;;
61200;SDS011;47065;52.898;6.992;2022-09-09T10:24:55;5.15;;;1.83;;
61200;SDS011;47065;52.898;6.992;2022-09-09T10:30:24;7.38;;;1.55;;
61200;SDS011;47065;52.898;6.992;2022-09-09T10:33:09;7.45;;;2.28;;
61200;SDS011;47065;52.898;6.992;2022-09-09T10:38:32;5.45;;;1.90;;
61200;SDS011;47065;52.898;6.992;2022-09-09T10:41:14;8.00;;;2.45;;
61200;SDS011;47065;52.898;6.992;2022-09-09T10:46:43;9.30;;;2.05;;
61200;SDS011;47065;52.898;6.992;2022-09-09T10:51:49;8.65;;;2.15;;
61200;SDS011;47065;52.898;6.992;2022-09-09T10:57:24;6.50;;;1.90;;
61200;SDS011;47065;52.898;6.992;2022-09-09T11:00:01;6.65;;;1.50;;
61200;SDS011;47065;52.898;6.992;2022-09-09T11:02:39;4.97;;;2.05;;
61200;SDS011;47065;52.898;6.992;2022-09-09T11:05:14;4.38;;;1.80;;
61200;SDS011;47065;52.898;6.992;2022-09-09T11:07:57;5.32;;;1.20;;
61200;SDS011;47065;52.898;6.992;2022-09-09T11:13:40;6.85;;;1.65;;
61200;SDS011;47065;52.898;6.992;2022-09-09T11:16:23;4.22;;;1.40;;
61200;SDS011;47065;52.898;6.992;2022-09-09T11:18:51;7.43;;;1.90;;
61200;SDS011;47065;52.898;6.992;2022-09-09T11:21:41;6.25;;;1.98;;
61200;SDS011;47065;52.898;6.992;2022-09-09T11:38:23;5.63;;;1.75;;
61200;SDS011;47065;52.898;6.992;2022-09-09T11:41:05;3.78;;;1.63;;
61200;SDS011;47065;52.898;6.992;2022-09-09T11:43:41;4.68;;;1.27;;
61200;SDS011;47065;52.898;6.992;2022-09-09T11:46:07;9.20;;;1.65;;
61200;SDS011;47065;52.898;6.992;2022-09-09T11:53:51;5.85;;;1.83;;
61200;SDS011;47065;52.898;6.992;2022-09-09T11:56:27;6.32;;;1.33;;
61200;SDS011;47065;52.898;6.992;2022-09-09T11:59:06;7.97;;;1.40;;
61200;SDS011;47065;52.898;6.992;2022-09-09T12:01:49;5.53;;;1.38;;
61200;SDS011;47065;52.898;6.992;2022-09-09T12:09:43;5.10;;;1.27;;
61200;SDS011;47065;52.898;6.992;2022-09-09T12:17:49;4.10;;;0.82;;
61200;SDS011;47065;52.898;6.992;2022-09-09T12:23:06;4.10;;;1.70;;
61200;SDS011;47065;52.898;6.992;2022-09-09T12:25:58;5.03;;;1.70;;
61200;SDS011;47065;52.898;6.992;2022-09-09T12:28:52;3.30;;;1.27;;
61200;SDS011;47065;52.898;6.992;2022-09-09T12:34:44;7.10;;;2.22;;
61200;SDS011;47065;52.898;6.992;2022-09-09T12:39:51;5.72;;;1.65;;
61200;SDS011;47065;52.898;6.992;2022-09-09T12:42:21;6.07;;;1.52;;
61200;SDS011;47065;52.898;6.992;2022-09-09T12:44:51;3.95;;;0.90;;
61200;SDS011;47065;52.898;6.992;2022-09-09T12:49:50;6.20;;;1.10;;
61200;SDS011;47065;52.898;6.992;2022-09-09T12:52:23;4.68;;;1.88;;
61200;SDS011;47065;52.898;6.992;2022-09-09T12:54:55;5.43;;;1.40;;
61200;SDS011;47065;52.898;6.992;2022-09-09T12:57:23;4.32;;;0.80;;
61200;SDS011;47065;52.898;6.992;2022-09-09T12:59:50;6.85;;;0.98;;
61200;SDS011;47065;52.898;6.992;2022-09-09T13:04:51;7.30;;;1.08;;
61200;SDS011;47065;52.898;6.992;2022-09-09T13:07:19;3.35;;;0.98;;
61200;SDS011;47065;52.898;6.992;2022-09-09T13:09:47;2.55;;;1.00;;
61200;SDS011;47065;52.898;6.992;2022-09-09T13:12:20;18.42;;;2.67;;
61200;SDS011;47065;52.898;6.992;2022-09-09T13:14:54;25.00;;;2.97;;
61200;SDS011;47065;52.898;6.992;2022-09-09T13:17:25;16.73;;;1.58;;
61200;SDS011;47065;52.898;6.992;2022-09-09T13:19:56;6.70;;;1.00;;
61200;SDS011;47065;52.898;6.992;2022-09-09T13:22:35;4.60;;;1.20;;
61200;SDS011;47065;52.898;6.992;2022-09-09T13:25:13;3.60;;;1.00;;
61200;SDS011;47065;52.898;6.992;2022-09-09T13:33:18;4.20;;;1.20;;
61200;SDS011;47065;52.898;6.992;2022-09-09T13:35:52;4.75;;;1.20;;
61200;SDS011;47065;52.898;6.992;2022-09-09T13:38:21;3.10;;;1.15;;
61200;SDS011;47065;52.898;6.992;2022-09-09T13:40:54;3.75;;;0.93;;
61200;SDS011;47065;52.898;6.992;2022-09-09T13:43:31;3.13;;;1.60;;
61200;SDS011;47065;52.898;6.992;2022-09-09T13:51:37;6.18;;;2.20;;
61200;SDS011;47065;52.898;6.992;2022-09-09T13:54:09;4.60;;;2.42;;
61200;SDS011;47065;52.898;6.992;2022-09-09T13:56:36;6.25;;;2.38;;
61200;SDS011;47065;52.898;6.992;2022-09-09T13:59:04;4.85;;;2.53;;
61200;SDS011;47065;52.898;6.992;2022-09-09T14:01:31;9.50;;;2.85;;
61200;SDS011;47065;52.898;6.992;2022-09-09T14:03:58;8.48;;;2.13;;
61200;SDS011;47065;52.898;6.992;2022-09-09T14:06:23;9.90;;;2.30;;
61200;SDS011;47065;52.898;6.992;2022-09-09T14:08:49;6.55;;;2.28;;
61200;SDS011;47065;52.898;6.992;2022-09-09T14:11:16;5.03;;;2.15;;
61200;SDS011;47065;52.898;6.992;2022-09-09T14:13:42;3.42;;;2.03;;
61200;SDS011;47065;52.898;6.992;2022-09-09T14:16:08;6.78;;;2.10;;
61200;SDS011;47065;52.898;6.992;2022-09-09T14:18:34;7.80;;;2.90;;
61200;SDS011;47065;52.898;6.992;2022-09-09T14:21:00;5.05;;;1.90;;
61200;SDS011;47065;52.898;6.992;2022-09-09T14:23:27;7.05;;;1.90;;
61200;SDS011;47065;52.898;6.992;2022-09-09T14:25:52;3.13;;;2.00;;
61200;SDS011;47065;52.898;6.992;2022-09-09T14:28:18;5.55;;;2.35;;
61200;SDS011;47065;52.898;6.992;2022-09-09T14:30:43;4.22;;;1.70;;
61200;SDS011;47065;52.898;6.992;2022-09-09T14:33:10;5.72;;;1.85;;
61200;SDS011;47065;52.898;6.992;2022-09-09T14:35:38;2.65;;;1.20;;
61200;SDS011;47065;52.898;6.992;2022-09-09T14:38:04;4.03;;;1.65;;
61200;SDS011;47065;52.898;6.992;2022-09-09T14:40:30;1.70;;;1.15;;
61200;SDS011;47065;52.898;6.992;2022-09-09T14:42:57;6.75;;;1.20;;
61200;SDS011;47065;52.898;6.992;2022-09-09T14:45:23;2.97;;;0.98;;
61200;SDS011;47065;52.898;6.992;2022-09-09T14:47:50;6.00;;;0.98;;
61200;SDS011;47065;52.898;6.992;2022-09-09T14:50:16;0.63;;;0.50;;
61200;SDS011;47065;52.898;6.992;2022-09-09T14:52:43;1.73;;;0.90;;
61200;SDS011;47065;52.898;6.992;2022-09-09T14:55:09;1.42;;;1.10;;
61200;SDS011;47065;52.898;6.992;2022-09-09T14:57:35;0.73;;;0.30;;
61200;SDS011;47065;52.898;6.992;2022-09-09T15:00:01;1.10;;;0.20;;
61200;SDS011;47065;52.898;6.992;2022-09-09T15:02:28;1.38;;;0.40;;
61200;SDS011;47065;52.898;6.992;2022-09-09T15:04:55;1.63;;;0.57;;
61200;SDS011;47065;52.898;6.992;2022-09-09T15:07:23;2.88;;;0.60;;
61200;SDS011;47065;52.898;6.992;2022-09-09T15:09:53;4.22;;;0.40;;
61200;SDS011;47065;52.898;6.992;2022-09-09T15:12:19;1.98;;;0.50;;
61200;SDS011;47065;52.898;6.992;2022-09-09T15:14:45;1.25;;;0.60;;
61200;SDS011;47065;52.898;6.992;2022-09-09T15:17:11;1.45;;;0.60;;
61200;SDS011;47065;52.898;6.992;2022-09-09T15:19:37;2.25;;;1.00;;
61200;SDS011;47065;52.898;6.992;2022-09-09T15:22:06;0.70;;;0.70;;
61200;SDS011;47065;52.898;6.992;2022-09-09T15:24:32;1.33;;;0.57;;
61200;SDS011;47065;52.898;6.992;2022-09-09T15:26:59;2.55;;;0.98;;
61200;SDS011;47065;52.898;6.992;2022-09-09T15:29:25;1.73;;;1.10;;
61200;SDS011;47065;52.898;6.992;2022-09-09T15:31:51;3.20;;;0.73;;
61200;SDS011;47065;52.898;6.992;2022-09-09T15:34:18;2.90;;;1.05;;
61200;SDS011;47065;52.898;6.992;2022-09-09T15:36:44;2.10;;;1.40;;
61200;SDS011;47065;52.898;6.992;2022-09-09T15:39:12;1.90;;;0.57;;
61200;SDS011;47065;52.898;6.992;2022-09-09T15:41:41;1.55;;;0.80;;
61200;SDS011;47065;52.898;6.992;2022-09-09T15:44:07;0.70;;;0.70;;
61200;SDS011;47065;52.898;6.992;2022-09-09T15:46:36;2.58;;;0.85;;
61200;SDS011;47065;52.898;6.992;2022-09-09T15:51:27;2.83;;;0.70;;
61200;SDS011;47065;52.898;6.992;2022-09-09T15:53:57;4.75;;;1.00;;
61200;SDS011;47065;52.898;6.992;2022-09-09T15:56:24;2.90;;;0.95;;
61200;SDS011;47065;52.898;6.992;2022-09-09T15:58:52;2.88;;;0.85;;
61200;SDS011;47065;52.898;6.992;2022-09-09T16:01:18;2.53;;;0.90;;
61200;SDS011;47065;52.898;6.992;2022-09-09T16:03:44;4.38;;;1.00;;
61200;SDS011;47065;52.898;6.992;2022-09-09T16:06:11;2.72;;;1.00;;
61200;SDS011;47065;52.898;6.992;2022-09-09T16:08:39;2.55;;;0.95;;
61200;SDS011;47065;52.898;6.992;2022-09-09T16:11:14;3.65;;;1.42;;
61200;SDS011;47065;52.898;6.992;2022-09-09T16:13:50;1.15;;;0.80;;
61200;SDS011;47065;52.898;6.992;2022-09-09T16:16:18;2.47;;;0.88;;
61200;SDS011;47065;52.898;6.992;2022-09-09T16:18:47;1.88;;;0.80;;
61200;SDS011;47065;52.898;6.992;2022-09-09T16:21:18;8.82;;;1.45;;
61200;SDS011;47065;52.898;6.992;2022-09-09T16:23:49;5.22;;;1.83;;
61200;SDS011;47065;52.898;6.992;2022-09-09T16:26:17;1.63;;;1.05;;
61200;SDS011;47065;52.898;6.992;2022-09-09T16:28:43;3.00;;;1.33;;
61200;SDS011;47065;52.898;6.992;2022-09-09T16:31:09;2.13;;;1.38;;
61200;SDS011;47065;52.898;6.992;2022-09-09T16:33:39;2.58;;;1.10;;
61200;SDS011;47065;52.898;6.992;2022-09-09T16:36:14;8.20;;;1.30;;
61200;SDS011;47065;52.898;6.992;2022-09-09T16:38:54;1.67;;;0.82;;
61200;SDS011;47065;52.898;6.992;2022-09-09T16:41:22;3.53;;;1.83;;
61200;SDS011;47065;52.898;6.992;2022-09-09T16:43:54;3.47;;;1.23;;
61200;SDS011;47065;52.898;6.992;2022-09-09T16:46:21;3.78;;;1.20;;
61200;SDS011;47065;52.898;6.992;2022-09-09T16:48:49;4.63;;;1.10;;
61200;SDS011;47065;52.898;6.992;2022-09-09T16:51:19;2.45;;;1.13;;
61200;SDS011;47065;52.898;6.992;2022-09-09T16:53:50;3.78;;;1.65;;
61200;SDS011;47065;52.898;6.992;2022-09-09T16:56:17;3.78;;;1.70;;
61200;SDS011;47065;52.898;6.992;2022-09-09T16:58:55;3.05;;;1.17;;
61200;SDS011;47065;52.898;6.992;2022-09-09T17:01:22;2.25;;;1.20;;
61200;SDS011;47065;52.898;6.992;2022-09-09T17:03:52;2.80;;;1.10;;
61200;SDS011;47065;52.898;6.992;2022-09-09T17:06:18;4.20;;;1.70;;
61200;SDS011;47065;52.898;6.992;2022-09-09T17:08:44;1.92;;;1.20;;
61200;SDS011;47065;52.898;6.992;2022-09-09T17:11:13;5.40;;;1.70;;
61200;SDS011;47065;52.898;6.992;2022-09-09T17:13:44;4.28;;;1.25;;
61200;SDS011;47065;52.898;6.992;2022-09-09T17:16:11;1.90;;;1.40;;
61200;SDS011;47065;52.898;6.992;2022-09-09T17:18:38;2.83;;;1.33;;